Terminal Aerodrome Forecast
Issued by NWS

Home | Current Version | Previous Version | Text Only | Print | Product List | Glossary On
Versions: 1 2 3 4 5 6 7 8 9 10 11 12 13 14 15 16 17 18 19 20 21
000
FTUS41 KPBZ 232300
TAFFKL
TAF
KFKL 232326Z 2400/2424 13010G17KT P6SM BKN100
     FM240300 14011G18KT 6SM -RA BKN025
     FM240500 15012G22KT 5SM -RA OVC012
      TEMPO 2406/2410 2SM RA BR OVC006
     FM241200 18012G22KT P6SM OVC015
     FM241600 20017G35KT P6SM BKN050
      AMD LTD TO CLD VIS AND WIND=

USA.gov is the U.S. government's official web portal to all federal, state and local government web resources and services.